Terminal Aerodrome Forecast
Issued by NWS Spokane, WA

Home | Current Version | Previous Version | Text Only | Print | Product List | Glossary On
Versions: 1 2 3 4 5 6 7 8 9 10 11 12 13 14 15 16 17 18 19 20 21 22 23 24 25 26 27 28 29 30 31 32
092
FTUS46 KOTX 290521
TAFEAT
TAF
KEAT 290521Z 2906/3006 29012G17KT P6SM FEW070 BKN150
     FM290800 31011KT P6SM SKC
     FM291900 15004KT 6SM FU SKC
     FM300100 31012KT P6SM SKC=

USA.gov is the U.S. government's official web portal to all federal, state and local government web resources and services.